KMFI/MFI METAR and TAF weather

Enter ICAO airport designator
Station Type Date Time Source
KMFI METAR 2020/07/12 01:54 UTC NOAA

KMFI 120154Z AUTO 35005KT 10SM CLR 21/17 A2985 RMK AO2 SLP104 T02110167


Station Type Date Time Source
KMFI Decoded METAR 2020/07/12 01:54 UTC NOAA

MARSHFIELD MUNICIPAL AIRPORT, WI, United States (KMFI) 44-38N 90-11W 379M
Jul 11, 2020 - 09:54 PM EDT / 2020.07.12 0154 UTC
Wind: from the N (350 degrees) at 6 MPH (5 KT):0
Visibility: 10 mile(s):0
Sky conditions: clear
Temperature: 70.0 F (21.1 C)
Dew Point: 62.1 F (16.7 C)
Relative Humidity: 75%
Pressure (altimeter): 29.85 in. Hg (1010 hPa)
ob: KMFI 120154Z AUTO 35005KT 10SM CLR 21/17 A2985 RMK AO2 SLP104 T02110167
cycle: 2

Station Type Date Time Source
KMFI TAF UTC NOAA

Error!

Example: see airport list